sensor_id;sensor_type;location;lat;lon;timestamp;temperature;humidity
5009;DHT22;2523;51.058;6.922;2023-07-13T00:01:31;18.90;1.00
5009;DHT22;2523;51.058;6.922;2023-07-13T00:03:57;18.90;1.00
5009;DHT22;2523;51.058;6.922;2023-07-13T00:06:23;18.90;1.00
5009;DHT22;2523;51.058;6.922;2023-07-13T00:08:48;18.80;1.00
5009;DHT22;2523;51.058;6.922;2023-07-13T00:11:15;18.80;1.00
5009;DHT22;2523;51.058;6.922;2023-07-13T00:13:42;18.80;1.00
5009;DHT22;2523;51.058;6.922;2023-07-13T00:16:10;18.80;1.00
5009;DHT22;2523;51.058;6.922;2023-07-13T00:18:36;18.90;1.00
5009;DHT22;2523;51.058;6.922;2023-07-13T00:21:02;18.90;1.00
5009;DHT22;2523;51.058;6.922;2023-07-13T00:23:40;19.00;1.00
5009;DHT22;2523;51.058;6.922;2023-07-13T00:26:08;18.90;1.00
5009;DHT22;2523;51.058;6.922;2023-07-13T00:28:35;18.80;1.00
5009;DHT22;2523;51.058;6.922;2023-07-13T00:31:01;18.80;1.00
5009;DHT22;2523;51.058;6.922;2023-07-13T00:33:28;18.70;1.00
5009;DHT22;2523;51.058;6.922;2023-07-13T00:35:55;18.70;1.00
5009;DHT22;2523;51.058;6.922;2023-07-13T00:38:20;18.70;1.00
5009;DHT22;2523;51.058;6.922;2023-07-13T00:40:46;18.80;1.00
5009;DHT22;2523;51.058;6.922;2023-07-13T00:43:20;18.80;1.00
5009;DHT22;2523;51.058;6.922;2023-07-13T00:48:20;18.70;1.00
5009;DHT22;2523;51.058;6.922;2023-07-13T00:50:49;18.60;1.00
5009;DHT22;2523;51.058;6.922;2023-07-13T00:53:16;18.60;1.00
5009;DHT22;2523;51.058;6.922;2023-07-13T00:55:42;18.60;1.00
5009;DHT22;2523;51.058;6.922;2023-07-13T00:58:08;18.50;1.00
5009;DHT22;2523;51.058;6.922;2023-07-13T01:00:36;18.40;1.00
5009;DHT22;2523;51.058;6.922;2023-07-13T01:03:03;18.50;1.00
5009;DHT22;2523;51.058;6.922;2023-07-13T01:05:31;18.50;1.00
5009;DHT22;2523;51.058;6.922;2023-07-13T01:07:57;18.50;1.00
5009;DHT22;2523;51.058;6.922;2023-07-13T01:10:24;18.50;1.00
5009;DHT22;2523;51.058;6.922;2023-07-13T01:12:50;18.40;1.00
5009;DHT22;2523;51.058;6.922;2023-07-13T01:15:38;18.50;1.00
5009;DHT22;2523;51.058;6.922;2023-07-13T01:18:07;18.40;1.00
5009;DHT22;2523;51.058;6.922;2023-07-13T01:20:34;18.30;1.00
5009;DHT22;2523;51.058;6.922;2023-07-13T01:23:10;18.30;1.00
5009;DHT22;2523;51.058;6.922;2023-07-13T01:25:36;18.30;1.00
5009;DHT22;2523;51.058;6.922;2023-07-13T01:28:03;18.30;1.00
5009;DHT22;2523;51.058;6.922;2023-07-13T01:30:29;18.30;1.00
5009;DHT22;2523;51.058;6.922;2023-07-13T01:32:55;18.40;1.00
5009;DHT22;2523;51.058;6.922;2023-07-13T01:35:20;18.30;1.00
5009;DHT22;2523;51.058;6.922;2023-07-13T01:37:46;18.20;1.00
5009;DHT22;2523;51.058;6.922;2023-07-13T01:40:12;18.20;1.00
5009;DHT22;2523;51.058;6.922;2023-07-13T01:42:38;18.10;1.00
5009;DHT22;2523;51.058;6.922;2023-07-13T01:45:04;18.10;1.00
5009;DHT22;2523;51.058;6.922;2023-07-13T01:47:30;18.00;1.00
5009;DHT22;2523;51.058;6.922;2023-07-13T01:49:57;18.00;1.00
5009;DHT22;2523;51.058;6.922;2023-07-13T01:52:23;18.00;1.00
5009;DHT22;2523;51.058;6.922;2023-07-13T01:54:48;18.00;1.00
5009;DHT22;2523;51.058;6.922;2023-07-13T01:57:14;17.90;1.00
5009;DHT22;2523;51.058;6.922;2023-07-13T01:59:39;17.90;1.00
5009;DHT22;2523;51.058;6.922;2023-07-13T02:02:05;17.80;1.00
5009;DHT22;2523;51.058;6.922;2023-07-13T02:04:31;17.80;1.00
5009;DHT22;2523;51.058;6.922;2023-07-13T02:06:56;17.80;1.00
5009;DHT22;2523;51.058;6.922;2023-07-13T02:09:22;17.80;1.00
5009;DHT22;2523;51.058;6.922;2023-07-13T02:11:47;17.80;1.00
5009;DHT22;2523;51.058;6.922;2023-07-13T02:14:13;17.80;1.00
5009;DHT22;2523;51.058;6.922;2023-07-13T02:16:40;17.80;1.00
5009;DHT22;2523;51.058;6.922;2023-07-13T02:19:06;17.90;1.00
5009;DHT22;2523;51.058;6.922;2023-07-13T02:21:31;17.80;1.00
5009;DHT22;2523;51.058;6.922;2023-07-13T02:23:57;17.80;1.00
5009;DHT22;2523;51.058;6.922;2023-07-13T02:26:23;17.80;1.00
5009;DHT22;2523;51.058;6.922;2023-07-13T02:28:48;17.80;1.00
5009;DHT22;2523;51.058;6.922;2023-07-13T02:31:15;17.70;1.00
5009;DHT22;2523;51.058;6.922;2023-07-13T02:33:41;17.70;1.00
5009;DHT22;2523;51.058;6.922;2023-07-13T02:36:07;17.80;1.00
5009;DHT22;2523;51.058;6.922;2023-07-13T02:38:33;17.80;1.00
5009;DHT22;2523;51.058;6.922;2023-07-13T02:41:00;17.80;1.00
5009;DHT22;2523;51.058;6.922;2023-07-13T02:43:27;17.90;1.00
5009;DHT22;2523;51.058;6.922;2023-07-13T02:45:52;17.70;1.00
5009;DHT22;2523;51.058;6.922;2023-07-13T02:48:18;17.60;1.00
5009;DHT22;2523;51.058;6.922;2023-07-13T02:50:46;17.60;1.00
5009;DHT22;2523;51.058;6.922;2023-07-13T02:53:12;17.50;1.00
5009;DHT22;2523;51.058;6.922;2023-07-13T02:55:37;17.60;1.00
5009;DHT22;2523;51.058;6.922;2023-07-13T02:58:03;17.50;1.00
5009;DHT22;2523;51.058;6.922;2023-07-13T03:00:29;17.50;1.00
5009;DHT22;2523;51.058;6.922;2023-07-13T03:02:56;17.50;1.00
5009;DHT22;2523;51.058;6.922;2023-07-13T03:05:23;17.50;1.00
5009;DHT22;2523;51.058;6.922;2023-07-13T03:07:48;17.50;1.00
5009;DHT22;2523;51.058;6.922;2023-07-13T03:10:14;17.50;1.00
5009;DHT22;2523;51.058;6.922;2023-07-13T03:12:40;17.40;1.00
5009;DHT22;2523;51.058;6.922;2023-07-13T03:15:06;17.40;1.00
5009;DHT22;2523;51.058;6.922;2023-07-13T03:17:31;17.40;1.00
5009;DHT22;2523;51.058;6.922;2023-07-13T03:19:57;17.40;1.00
5009;DHT22;2523;51.058;6.922;2023-07-13T03:22:22;17.40;1.00
5009;DHT22;2523;51.058;6.922;2023-07-13T03:24:48;17.40;1.00
5009;DHT22;2523;51.058;6.922;2023-07-13T03:27:14;17.40;1.00
5009;DHT22;2523;51.058;6.922;2023-07-13T03:29:40;17.40;1.00
5009;DHT22;2523;51.058;6.922;2023-07-13T03:32:06;17.30;1.00
5009;DHT22;2523;51.058;6.922;2023-07-13T03:34:31;17.20;1.00
5009;DHT22;2523;51.058;6.922;2023-07-13T03:36:58;17.20;1.00
5009;DHT22;2523;51.058;6.922;2023-07-13T03:39:23;17.10;1.00
5009;DHT22;2523;51.058;6.922;2023-07-13T03:41:49;17.10;1.00
5009;DHT22;2523;51.058;6.922;2023-07-13T03:44:16;17.20;1.00
5009;DHT22;2523;51.058;6.922;2023-07-13T03:46:42;17.20;1.00
5009;DHT22;2523;51.058;6.922;2023-07-13T03:49:09;17.30;1.00
5009;DHT22;2523;51.058;6.922;2023-07-13T03:51:35;17.30;1.00
5009;DHT22;2523;51.058;6.922;2023-07-13T03:54:00;17.40;1.00
5009;DHT22;2523;51.058;6.922;2023-07-13T03:56:26;17.40;1.00
5009;DHT22;2523;51.058;6.922;2023-07-13T03:58:52;17.30;1.00
5009;DHT22;2523;51.058;6.922;2023-07-13T04:01:20;17.30;1.00
5009;DHT22;2523;51.058;6.922;2023-07-13T04:03:45;17.30;1.00
5009;DHT22;2523;51.058;6.922;2023-07-13T04:06:20;17.30;1.00
5009;DHT22;2523;51.058;6.922;2023-07-13T04:08:54;17.30;1.00
5009;DHT22;2523;51.058;6.922;2023-07-13T04:11:21;17.30;1.00
5009;DHT22;2523;51.058;6.922;2023-07-13T04:13:47;17.30;1.00
5009;DHT22;2523;51.058;6.922;2023-07-13T04:16:15;17.30;1.00
5009;DHT22;2523;51.058;6.922;2023-07-13T04:18:41;17.20;1.00
5009;DHT22;2523;51.058;6.922;2023-07-13T04:21:07;17.20;1.00
5009;DHT22;2523;51.058;6.922;2023-07-13T04:23:33;17.20;1.00
5009;DHT22;2523;51.058;6.922;2023-07-13T04:25:59;17.20;1.00
5009;DHT22;2523;51.058;6.922;2023-07-13T04:28:25;17.30;1.00
5009;DHT22;2523;51.058;6.922;2023-07-13T04:30:51;17.40;1.00
5009;DHT22;2523;51.058;6.922;2023-07-13T04:33:17;17.30;1.00
5009;DHT22;2523;51.058;6.922;2023-07-13T04:35:43;17.40;1.00
5009;DHT22;2523;51.058;6.922;2023-07-13T04:38:12;17.50;1.00
5009;DHT22;2523;51.058;6.922;2023-07-13T04:40:37;17.50;1.00
5009;DHT22;2523;51.058;6.922;2023-07-13T04:43:03;17.50;1.00
5009;DHT22;2523;51.058;6.922;2023-07-13T04:45:29;17.70;1.00
5009;DHT22;2523;51.058;6.922;2023-07-13T04:47:56;17.70;1.00
5009;DHT22;2523;51.058;6.922;2023-07-13T04:50:21;17.70;1.00
5009;DHT22;2523;51.058;6.922;2023-07-13T04:52:51;17.80;1.00
5009;DHT22;2523;51.058;6.922;2023-07-13T04:55:18;17.80;1.00
5009;DHT22;2523;51.058;6.922;2023-07-13T04:57:44;17.80;1.00
5009;DHT22;2523;51.058;6.922;2023-07-13T05:00:10;18.00;1.00
5009;DHT22;2523;51.058;6.922;2023-07-13T05:02:38;18.10;1.00
5009;DHT22;2523;51.058;6.922;2023-07-13T05:05:04;18.20;1.00
5009;DHT22;2523;51.058;6.922;2023-07-13T05:07:29;18.30;1.00
5009;DHT22;2523;51.058;6.922;2023-07-13T05:09:55;18.30;1.00
5009;DHT22;2523;51.058;6.922;2023-07-13T05:12:21;18.30;1.00
5009;DHT22;2523;51.058;6.922;2023-07-13T05:14:46;18.30;1.00
5009;DHT22;2523;51.058;6.922;2023-07-13T05:17:14;18.20;1.00
5009;DHT22;2523;51.058;6.922;2023-07-13T05:19:39;18.10;1.00
5009;DHT22;2523;51.058;6.922;2023-07-13T05:22:05;18.10;1.00
5009;DHT22;2523;51.058;6.922;2023-07-13T05:24:31;18.20;1.00
5009;DHT22;2523;51.058;6.922;2023-07-13T05:26:56;18.30;1.00
5009;DHT22;2523;51.058;6.922;2023-07-13T05:29:22;18.40;1.00
5009;DHT22;2523;51.058;6.922;2023-07-13T05:31:49;18.40;1.00
5009;DHT22;2523;51.058;6.922;2023-07-13T05:34:15;18.40;1.00
5009;DHT22;2523;51.058;6.922;2023-07-13T05:36:41;18.40;1.00
5009;DHT22;2523;51.058;6.922;2023-07-13T05:39:06;18.50;1.00
5009;DHT22;2523;51.058;6.922;2023-07-13T05:41:32;18.70;1.00
5009;DHT22;2523;51.058;6.922;2023-07-13T05:43:58;18.60;1.00
5009;DHT22;2523;51.058;6.922;2023-07-13T05:46:23;18.70;1.00
5009;DHT22;2523;51.058;6.922;2023-07-13T05:48:49;18.80;1.00
5009;DHT22;2523;51.058;6.922;2023-07-13T05:51:14;18.90;1.00
5009;DHT22;2523;51.058;6.922;2023-07-13T05:53:40;19.10;1.00
5009;DHT22;2523;51.058;6.922;2023-07-13T05:56:05;19.20;1.00
5009;DHT22;2523;51.058;6.922;2023-07-13T05:58:31;19.20;1.00
5009;DHT22;2523;51.058;6.922;2023-07-13T06:01:02;19.10;1.00
5009;DHT22;2523;51.058;6.922;2023-07-13T06:03:29;19.10;1.00
5009;DHT22;2523;51.058;6.922;2023-07-13T06:05:54;19.00;1.00
5009;DHT22;2523;51.058;6.922;2023-07-13T06:08:20;19.20;1.00
5009;DHT22;2523;51.058;6.922;2023-07-13T06:10:45;19.20;1.00
5009;DHT22;2523;51.058;6.922;2023-07-13T06:13:11;19.20;1.00
5009;DHT22;2523;51.058;6.922;2023-07-13T06:15:36;19.20;1.00
5009;DHT22;2523;51.058;6.922;2023-07-13T06:18:02;19.00;1.00
5009;DHT22;2523;51.058;6.922;2023-07-13T06:20:28;19.00;1.00
5009;DHT22;2523;51.058;6.922;2023-07-13T06:22:54;19.00;1.00
5009;DHT22;2523;51.058;6.922;2023-07-13T06:25:19;19.10;1.00
5009;DHT22;2523;51.058;6.922;2023-07-13T06:27:45;19.00;1.00
5009;DHT22;2523;51.058;6.922;2023-07-13T06:30:11;19.20;1.00
5009;DHT22;2523;51.058;6.922;2023-07-13T06:32:37;19.20;1.00
5009;DHT22;2523;51.058;6.922;2023-07-13T06:35:03;19.30;1.00
5009;DHT22;2523;51.058;6.922;2023-07-13T06:37:29;19.20;1.00
5009;DHT22;2523;51.058;6.922;2023-07-13T06:39:54;19.30;1.00
5009;DHT22;2523;51.058;6.922;2023-07-13T06:42:20;19.30;1.00
5009;DHT22;2523;51.058;6.922;2023-07-13T06:44:45;19.40;1.00
5009;DHT22;2523;51.058;6.922;2023-07-13T06:47:13;19.50;1.00
5009;DHT22;2523;51.058;6.922;2023-07-13T06:49:39;19.60;1.00
5009;DHT22;2523;51.058;6.922;2023-07-13T06:52:05;19.50;1.00
5009;DHT22;2523;51.058;6.922;2023-07-13T06:54:30;19.50;1.00
5009;DHT22;2523;51.058;6.922;2023-07-13T06:56:56;19.50;1.00
5009;DHT22;2523;51.058;6.922;2023-07-13T06:59:24;19.50;1.00
5009;DHT22;2523;51.058;6.922;2023-07-13T07:01:49;19.50;1.00
5009;DHT22;2523;51.058;6.922;2023-07-13T07:04:15;19.50;1.00
5009;DHT22;2523;51.058;6.922;2023-07-13T07:06:40;19.50;1.00
5009;DHT22;2523;51.058;6.922;2023-07-13T07:09:06;19.70;1.00
5009;DHT22;2523;51.058;6.922;2023-07-13T07:11:31;19.80;1.00
5009;DHT22;2523;51.058;6.922;2023-07-13T07:13:57;19.90;1.00
5009;DHT22;2523;51.058;6.922;2023-07-13T07:16:25;20.20;1.00
5009;DHT22;2523;51.058;6.922;2023-07-13T07:18:50;20.40;1.00
5009;DHT22;2523;51.058;6.922;2023-07-13T07:21:16;20.40;1.00
5009;DHT22;2523;51.058;6.922;2023-07-13T07:23:42;20.40;1.00
5009;DHT22;2523;51.058;6.922;2023-07-13T07:26:08;20.40;1.00
5009;DHT22;2523;51.058;6.922;2023-07-13T07:28:35;20.30;1.00
5009;DHT22;2523;51.058;6.922;2023-07-13T07:31:01;20.30;1.00
5009;DHT22;2523;51.058;6.922;2023-07-13T07:33:26;20.20;1.00
5009;DHT22;2523;51.058;6.922;2023-07-13T07:35:52;20.10;1.00
5009;DHT22;2523;51.058;6.922;2023-07-13T07:38:18;20.20;1.00
5009;DHT22;2523;51.058;6.922;2023-07-13T07:40:43;20.20;1.00
5009;DHT22;2523;51.058;6.922;2023-07-13T07:43:11;20.20;1.00
5009;DHT22;2523;51.058;6.922;2023-07-13T07:45:38;20.30;1.00
5009;DHT22;2523;51.058;6.922;2023-07-13T07:48:05;20.20;1.00
5009;DHT22;2523;51.058;6.922;2023-07-13T07:50:31;20.20;1.00
5009;DHT22;2523;51.058;6.922;2023-07-13T07:52:56;20.30;1.00
5009;DHT22;2523;51.058;6.922;2023-07-13T07:55:22;20.20;1.00
5009;DHT22;2523;51.058;6.922;2023-07-13T07:57:49;20.20;1.00
5009;DHT22;2523;51.058;6.922;2023-07-13T08:00:15;20.30;1.00
5009;DHT22;2523;51.058;6.922;2023-07-13T08:02:41;20.30;1.00
5009;DHT22;2523;51.058;6.922;2023-07-13T08:05:08;20.40;1.00
5009;DHT22;2523;51.058;6.922;2023-07-13T08:07:34;20.40;1.00
5009;DHT22;2523;51.058;6.922;2023-07-13T08:09:59;20.40;1.00
5009;DHT22;2523;51.058;6.922;2023-07-13T08:12:25;20.50;1.00
5009;DHT22;2523;51.058;6.922;2023-07-13T08:14:51;20.40;1.00
5009;DHT22;2523;51.058;6.922;2023-07-13T08:17:23;20.60;1.00
5009;DHT22;2523;51.058;6.922;2023-07-13T08:19:49;20.80;1.00
5009;DHT22;2523;51.058;6.922;2023-07-13T08:22:14;21.00;1.00
5009;DHT22;2523;51.058;6.922;2023-07-13T08:24:40;21.10;1.00
5009;DHT22;2523;51.058;6.922;2023-07-13T08:27:07;21.30;1.00
5009;DHT22;2523;51.058;6.922;2023-07-13T08:29:33;21.40;1.00
5009;DHT22;2523;51.058;6.922;2023-07-13T08:31:58;21.30;1.00
5009;DHT22;2523;51.058;6.922;2023-07-13T08:34:24;21.40;1.00
5009;DHT22;2523;51.058;6.922;2023-07-13T08:36:50;21.40;1.00
5009;DHT22;2523;51.058;6.922;2023-07-13T08:39:15;21.50;1.00
5009;DHT22;2523;51.058;6.922;2023-07-13T08:41:41;21.40;1.00
5009;DHT22;2523;51.058;6.922;2023-07-13T08:44:26;21.40;1.00
5009;DHT22;2523;51.058;6.922;2023-07-13T08:46:56;21.50;1.00
5009;DHT22;2523;51.058;6.922;2023-07-13T08:49:24;21.40;1.00
5009;DHT22;2523;51.058;6.922;2023-07-13T08:51:54;21.30;1.00
5009;DHT22;2523;51.058;6.922;2023-07-13T08:54:32;21.40;1.00
5009;DHT22;2523;51.058;6.922;2023-07-13T08:57:02;21.40;1.00
5009;DHT22;2523;51.058;6.922;2023-07-13T08:59:33;21.50;1.00
5009;DHT22;2523;51.058;6.922;2023-07-13T09:02:34;21.70;1.00
5009;DHT22;2523;51.058;6.922;2023-07-13T09:05:18;22.00;1.00
5009;DHT22;2523;51.058;6.922;2023-07-13T09:10:31;21.90;1.00
5009;DHT22;2523;51.058;6.922;2023-07-13T09:13:24;22.00;1.00
5009;DHT22;2523;51.058;6.922;2023-07-13T09:15:52;22.00;1.00
5009;DHT22;2523;51.058;6.922;2023-07-13T09:18:29;21.90;1.00
5009;DHT22;2523;51.058;6.922;2023-07-13T09:21:02;22.00;1.00
5009;DHT22;2523;51.058;6.922;2023-07-13T09:23:29;22.00;1.00
5009;DHT22;2523;51.058;6.922;2023-07-13T09:26:19;22.10;1.00
5009;DHT22;2523;51.058;6.922;2023-07-13T09:28:49;22.40;1.00
5009;DHT22;2523;51.058;6.922;2023-07-13T09:31:39;22.50;1.00
5009;DHT22;2523;51.058;6.922;2023-07-13T09:34:10;22.50;1.00
5009;DHT22;2523;51.058;6.922;2023-07-13T09:36:36;22.80;1.00
5009;DHT22;2523;51.058;6.922;2023-07-13T09:39:09;23.10;1.00
5009;DHT22;2523;51.058;6.922;2023-07-13T09:41:48;23.30;1.00
5009;DHT22;2523;51.058;6.922;2023-07-13T09:44:29;23.30;1.00
5009;DHT22;2523;51.058;6.922;2023-07-13T09:46:58;23.40;1.00
5009;DHT22;2523;51.058;6.922;2023-07-13T09:49:33;23.20;1.00
5009;DHT22;2523;51.058;6.922;2023-07-13T09:52:02;23.40;1.00
5009;DHT22;2523;51.058;6.922;2023-07-13T09:54:28;23.50;1.00
5009;DHT22;2523;51.058;6.922;2023-07-13T09:56:58;23.50;1.00
5009;DHT22;2523;51.058;6.922;2023-07-13T09:59:32;23.50;1.00
5009;DHT22;2523;51.058;6.922;2023-07-13T10:01:58;23.40;1.00
5009;DHT22;2523;51.058;6.922;2023-07-13T10:04:32;23.30;1.00
5009;DHT22;2523;51.058;6.922;2023-07-13T10:07:06;23.20;1.00
5009;DHT22;2523;51.058;6.922;2023-07-13T10:09:32;23.30;1.00
5009;DHT22;2523;51.058;6.922;2023-07-13T10:11:58;23.20;1.00
5009;DHT22;2523;51.058;6.922;2023-07-13T10:14:23;23.60;1.00
5009;DHT22;2523;51.058;6.922;2023-07-13T10:16:56;23.60;1.00
5009;DHT22;2523;51.058;6.922;2023-07-13T10:19:31;23.60;1.00
5009;DHT22;2523;51.058;6.922;2023-07-13T10:22:09;23.90;1.00
5009;DHT22;2523;51.058;6.922;2023-07-13T10:24:38;24.10;1.00
5009;DHT22;2523;51.058;6.922;2023-07-13T10:27:19;24.20;1.00
5009;DHT22;2523;51.058;6.922;2023-07-13T10:32:34;23.70;1.00
5009;DHT22;2523;51.058;6.922;2023-07-13T10:34:59;23.70;1.00
5009;DHT22;2523;51.058;6.922;2023-07-13T10:37:29;23.70;1.00
5009;DHT22;2523;51.058;6.922;2023-07-13T10:39:57;23.80;1.00
5009;DHT22;2523;51.058;6.922;2023-07-13T10:42:35;23.70;1.00
5009;DHT22;2523;51.058;6.922;2023-07-13T10:45:11;23.70;1.00
5009;DHT22;2523;51.058;6.922;2023-07-13T10:47:37;23.70;1.00
5009;DHT22;2523;51.058;6.922;2023-07-13T10:50:05;23.80;1.00
5009;DHT22;2523;51.058;6.922;2023-07-13T10:52:54;24.00;1.00
5009;DHT22;2523;51.058;6.922;2023-07-13T10:58:41;23.90;1.00
5009;DHT22;2523;51.058;6.922;2023-07-13T11:01:14;24.30;1.00
5009;DHT22;2523;51.058;6.922;2023-07-13T11:08:56;23.80;1.00
5009;DHT22;2523;51.058;6.922;2023-07-13T11:11:34;23.60;1.00
5009;DHT22;2523;51.058;6.922;2023-07-13T11:14:02;23.50;1.00
5009;DHT22;2523;51.058;6.922;2023-07-13T11:16:37;23.30;1.00
5009;DHT22;2523;51.058;6.922;2023-07-13T11:21:29;23.40;1.00
5009;DHT22;2523;51.058;6.922;2023-07-13T11:24:16;23.40;1.00
5009;DHT22;2523;51.058;6.922;2023-07-13T11:29:36;23.50;1.00
5009;DHT22;2523;51.058;6.922;2023-07-13T11:32:22;23.70;1.00
5009;DHT22;2523;51.058;6.922;2023-07-13T11:34:48;23.90;1.00
5009;DHT22;2523;51.058;6.922;2023-07-13T11:37:17;23.90;1.00
5009;DHT22;2523;51.058;6.922;2023-07-13T11:39:45;23.80;1.00
5009;DHT22;2523;51.058;6.922;2023-07-13T11:42:17;23.60;1.00
5009;DHT22;2523;51.058;6.922;2023-07-13T11:44:48;23.40;1.00
5009;DHT22;2523;51.058;6.922;2023-07-13T11:47:19;23.20;1.00
5009;DHT22;2523;51.058;6.922;2023-07-13T11:49:54;23.20;1.00
5009;DHT22;2523;51.058;6.922;2023-07-13T11:52:34;23.20;1.00
5009;DHT22;2523;51.058;6.922;2023-07-13T11:55:03;23.40;1.00
5009;DHT22;2523;51.058;6.922;2023-07-13T11:57:40;23.70;1.00
5009;DHT22;2523;51.058;6.922;2023-07-13T12:00:13;23.80;1.00
5009;DHT22;2523;51.058;6.922;2023-07-13T12:02:46;24.00;1.00
5009;DHT22;2523;51.058;6.922;2023-07-13T12:05:14;23.90;1.00
5009;DHT22;2523;51.058;6.922;2023-07-13T12:07:41;23.80;1.00
5009;DHT22;2523;51.058;6.922;2023-07-13T12:10:25;23.60;1.00
5009;DHT22;2523;51.058;6.922;2023-07-13T12:12:59;23.60;1.00
5009;DHT22;2523;51.058;6.922;2023-07-13T12:15:45;23.70;1.00
5009;DHT22;2523;51.058;6.922;2023-07-13T12:18:14;24.50;1.00
5009;DHT22;2523;51.058;6.922;2023-07-13T12:20:40;25.10;1.00
5009;DHT22;2523;51.058;6.922;2023-07-13T12:25:53;25.80;1.00
5009;DHT22;2523;51.058;6.922;2023-07-13T12:28:44;25.60;1.00
5009;DHT22;2523;51.058;6.922;2023-07-13T12:31:37;25.30;1.00
5009;DHT22;2523;51.058;6.922;2023-07-13T12:34:09;25.10;1.00
5009;DHT22;2523;51.058;6.922;2023-07-13T12:36:38;25.60;1.00
5009;DHT22;2523;51.058;6.922;2023-07-13T12:39:17;25.40;1.00
5009;DHT22;2523;51.058;6.922;2023-07-13T12:41:44;25.30;1.00
5009;DHT22;2523;51.058;6.922;2023-07-13T12:44:28;24.90;1.00
5009;DHT22;2523;51.058;6.922;2023-07-13T12:46:57;24.50;1.00
5009;DHT22;2523;51.058;6.922;2023-07-13T12:49:26;24.50;1.00
5009;DHT22;2523;51.058;6.922;2023-07-13T12:51:57;24.40;1.00
5009;DHT22;2523;51.058;6.922;2023-07-13T12:54:24;24.60;1.00
5009;DHT22;2523;51.058;6.922;2023-07-13T12:56:50;24.50;1.00
5009;DHT22;2523;51.058;6.922;2023-07-13T12:59:21;24.50;1.00
5009;DHT22;2523;51.058;6.922;2023-07-13T13:01:48;24.30;1.00
5009;DHT22;2523;51.058;6.922;2023-07-13T13:04:15;24.30;1.00
5009;DHT22;2523;51.058;6.922;2023-07-13T13:06:41;24.30;1.00
5009;DHT22;2523;51.058;6.922;2023-07-13T13:09:12;24.60;1.00
5009;DHT22;2523;51.058;6.922;2023-07-13T13:11:39;25.10;1.00
5009;DHT22;2523;51.058;6.922;2023-07-13T13:14:05;25.40;1.00
5009;DHT22;2523;51.058;6.922;2023-07-13T13:16:34;25.60;1.00
5009;DHT22;2523;51.058;6.922;2023-07-13T13:19:21;25.70;1.00
5009;DHT22;2523;51.058;6.922;2023-07-13T13:21:48;25.70;1.00
5009;DHT22;2523;51.058;6.922;2023-07-13T13:24:17;25.80;1.00
5009;DHT22;2523;51.058;6.922;2023-07-13T13:26:45;25.70;1.00
5009;DHT22;2523;51.058;6.922;2023-07-13T13:29:22;25.80;1.00
5009;DHT22;2523;51.058;6.922;2023-07-13T13:31:50;25.90;1.00
5009;DHT22;2523;51.058;6.922;2023-07-13T13:34:17;25.90;1.00
5009;DHT22;2523;51.058;6.922;2023-07-13T13:36:44;26.30;1.00
5009;DHT22;2523;51.058;6.922;2023-07-13T13:41:47;26.50;1.00
5009;DHT22;2523;51.058;6.922;2023-07-13T13:44:15;26.50;1.00
5009;DHT22;2523;51.058;6.922;2023-07-13T13:46:41;26.50;1.00
5009;DHT22;2523;51.058;6.922;2023-07-13T13:49:27;26.40;1.00
5009;DHT22;2523;51.058;6.922;2023-07-13T13:51:54;26.30;1.00
5009;DHT22;2523;51.058;6.922;2023-07-13T13:54:21;25.90;1.00
5009;DHT22;2523;51.058;6.922;2023-07-13T13:56:50;25.80;1.00
5009;DHT22;2523;51.058;6.922;2023-07-13T13:59:16;25.60;1.00
5009;DHT22;2523;51.058;6.922;2023-07-13T14:01:43;25.40;1.00
5009;DHT22;2523;51.058;6.922;2023-07-13T14:04:15;25.50;1.00
5009;DHT22;2523;51.058;6.922;2023-07-13T14:06:41;25.80;1.00
5009;DHT22;2523;51.058;6.922;2023-07-13T14:09:11;25.90;1.00
5009;DHT22;2523;51.058;6.922;2023-07-13T14:11:37;25.50;1.00
5009;DHT22;2523;51.058;6.922;2023-07-13T14:14:03;25.50;1.00
5009;DHT22;2523;51.058;6.922;2023-07-13T14:16:31;25.50;1.00
5009;DHT22;2523;51.058;6.922;2023-07-13T14:18:57;25.60;1.00
5009;DHT22;2523;51.058;6.922;2023-07-13T14:21:26;25.80;1.00
5009;DHT22;2523;51.058;6.922;2023-07-13T14:23:52;25.70;1.00
5009;DHT22;2523;51.058;6.922;2023-07-13T14:26:23;25.90;1.00
5009;DHT22;2523;51.058;6.922;2023-07-13T14:28:51;26.10;1.00
5009;DHT22;2523;51.058;6.922;2023-07-13T14:31:18;25.90;1.00
5009;DHT22;2523;51.058;6.922;2023-07-13T14:33:44;25.80;1.00
5009;DHT22;2523;51.058;6.922;2023-07-13T14:36:28;25.40;1.00
5009;DHT22;2523;51.058;6.922;2023-07-13T14:38:58;25.30;1.00
5009;DHT22;2523;51.058;6.922;2023-07-13T14:41:25;25.20;1.00
5009;DHT22;2523;51.058;6.922;2023-07-13T14:43:51;25.20;1.00
5009;DHT22;2523;51.058;6.922;2023-07-13T14:46:31;25.10;1.00
5009;DHT22;2523;51.058;6.922;2023-07-13T14:49:11;24.90;1.00
5009;DHT22;2523;51.058;6.922;2023-07-13T14:51:37;24.80;1.00
5009;DHT22;2523;51.058;6.922;2023-07-13T14:54:05;24.60;1.00
5009;DHT22;2523;51.058;6.922;2023-07-13T14:56:31;24.50;1.00
5009;DHT22;2523;51.058;6.922;2023-07-13T14:58:57;24.60;1.00
5009;DHT22;2523;51.058;6.922;2023-07-13T15:01:23;24.50;1.00
5009;DHT22;2523;51.058;6.922;2023-07-13T15:03:50;24.50;1.00
5009;DHT22;2523;51.058;6.922;2023-07-13T15:06:16;24.20;1.00
5009;DHT22;2523;51.058;6.922;2023-07-13T15:08:42;24.30;1.00
5009;DHT22;2523;51.058;6.922;2023-07-13T15:11:08;24.40;1.00
5009;DHT22;2523;51.058;6.922;2023-07-13T15:13:37;24.50;1.00
5009;DHT22;2523;51.058;6.922;2023-07-13T15:16:03;24.40;1.00
5009;DHT22;2523;51.058;6.922;2023-07-13T15:18:30;24.30;1.00
5009;DHT22;2523;51.058;6.922;2023-07-13T15:20:56;24.20;1.00
5009;DHT22;2523;51.058;6.922;2023-07-13T15:23:23;24.10;1.00
5009;DHT22;2523;51.058;6.922;2023-07-13T15:25:49;24.10;1.00
5009;DHT22;2523;51.058;6.922;2023-07-13T15:28:15;24.00;1.00
5009;DHT22;2523;51.058;6.922;2023-07-13T15:30:46;23.80;1.00
5009;DHT22;2523;51.058;6.922;2023-07-13T15:33:21;23.80;1.00
5009;DHT22;2523;51.058;6.922;2023-07-13T15:35:47;23.80;1.00
5009;DHT22;2523;51.058;6.922;2023-07-13T15:38:19;23.80;1.00
5009;DHT22;2523;51.058;6.922;2023-07-13T15:40:47;23.80;1.00
5009;DHT22;2523;51.058;6.922;2023-07-13T15:43:14;23.60;1.00
5009;DHT22;2523;51.058;6.922;2023-07-13T15:45:40;23.30;1.00
5009;DHT22;2523;51.058;6.922;2023-07-13T15:48:20;23.10;1.00
5009;DHT22;2523;51.058;6.922;2023-07-13T15:50:53;23.10;1.00
5009;DHT22;2523;51.058;6.922;2023-07-13T15:53:30;23.10;1.00
5009;DHT22;2523;51.058;6.922;2023-07-13T15:55:57;22.90;1.00
5009;DHT22;2523;51.058;6.922;2023-07-13T15:58:24;22.90;1.00
5009;DHT22;2523;51.058;6.922;2023-07-13T16:00:50;22.90;1.00
5009;DHT22;2523;51.058;6.922;2023-07-13T16:03:17;22.80;1.00
5009;DHT22;2523;51.058;6.922;2023-07-13T16:05:44;22.80;1.00
5009;DHT22;2523;51.058;6.922;2023-07-13T16:10:46;22.60;1.00
5009;DHT22;2523;51.058;6.922;2023-07-13T16:13:16;22.50;1.00
5009;DHT22;2523;51.058;6.922;2023-07-13T16:15:41;22.40;1.00
5009;DHT22;2523;51.058;6.922;2023-07-13T16:18:11;22.40;1.00
5009;DHT22;2523;51.058;6.922;2023-07-13T16:20:38;22.40;1.00
5009;DHT22;2523;51.058;6.922;2023-07-13T16:23:04;22.40;1.00
5009;DHT22;2523;51.058;6.922;2023-07-13T16:25:30;22.30;1.00
5009;DHT22;2523;51.058;6.922;2023-07-13T16:27:57;22.40;1.00
5009;DHT22;2523;51.058;6.922;2023-07-13T16:30:26;22.40;1.00
5009;DHT22;2523;51.058;6.922;2023-07-13T16:32:52;22.50;1.00
5009;DHT22;2523;51.058;6.922;2023-07-13T16:35:26;22.50;1.00
5009;DHT22;2523;51.058;6.922;2023-07-13T16:37:52;22.50;1.00
5009;DHT22;2523;51.058;6.922;2023-07-13T16:42:47;22.50;1.00
5009;DHT22;2523;51.058;6.922;2023-07-13T16:45:13;22.50;1.00
5009;DHT22;2523;51.058;6.922;2023-07-13T16:47:38;22.50;1.00
5009;DHT22;2523;51.058;6.922;2023-07-13T16:50:15;22.50;1.00
5009;DHT22;2523;51.058;6.922;2023-07-13T16:52:41;22.50;1.00
5009;DHT22;2523;51.058;6.922;2023-07-13T16:55:12;22.50;1.00
5009;DHT22;2523;51.058;6.922;2023-07-13T16:57:40;22.50;1.00